sensor_id;sensor_type;location;lat;lon;timestamp;pressure;altitude;pressure_sealevel;temperature;humidity
9839;BME280;4958;48.150;11.506;2022-12-16T00:05:34;94045.84;;;2.51;100.00
9839;BME280;4958;48.150;11.506;2022-12-16T00:08:55;94046.84;;;2.50;100.00
9839;BME280;4958;48.150;11.506;2022-12-16T00:12:31;94043.94;;;2.53;100.00
9839;BME280;4958;48.150;11.506;2022-12-16T00:25:34;94045.53;;;2.54;100.00
9839;BME280;4958;48.150;11.506;2022-12-16T00:28:21;94043.59;;;2.56;100.00
9839;BME280;4958;48.150;11.506;2022-12-16T00:31:30;94049.00;;;2.53;100.00
9839;BME280;4958;48.150;11.506;2022-12-16T00:37:24;94051.06;;;2.58;99.76
9839;BME280;4958;48.150;11.506;2022-12-16T00:40:10;94046.94;;;2.57;99.66
9839;BME280;4958;48.150;11.506;2022-12-16T00:42:59;94048.38;;;2.59;99.29
9839;BME280;4958;48.150;11.506;2022-12-16T00:45:49;94044.41;;;2.57;100.00
9839;BME280;4958;48.150;11.506;2022-12-16T00:48:35;94045.09;;;2.42;100.00
9839;BME280;4958;48.150;11.506;2022-12-16T00:51:47;94049.72;;;2.39;100.00
9839;BME280;4958;48.150;11.506;2022-12-16T00:54:45;94057.81;;;2.42;100.00
9839;BME280;4958;48.150;11.506;2022-12-16T00:57:29;94054.16;;;2.45;100.00
9839;BME280;4958;48.150;11.506;2022-12-16T01:09:10;94079.66;;;2.52;100.00
9839;BME280;4958;48.150;11.506;2022-12-16T01:11:59;94086.31;;;2.53;100.00
9839;BME280;4958;48.150;11.506;2022-12-16T01:14:50;94091.88;;;2.56;100.00
9839;BME280;4958;48.150;11.506;2022-12-16T01:21:16;94094.25;;;2.58;99.78
9839;BME280;4958;48.150;11.506;2022-12-16T01:24:14;94093.94;;;2.61;100.00
9839;BME280;4958;48.150;11.506;2022-12-16T01:26:53;94099.47;;;2.64;99.67
9839;BME280;4958;48.150;11.506;2022-12-16T01:29:48;94092.19;;;2.61;99.50
9839;BME280;4958;48.150;11.506;2022-12-16T01:32:28;94099.31;;;2.66;99.73
9839;BME280;4958;48.150;11.506;2022-12-16T01:35:05;94100.44;;;2.63;99.44
9839;BME280;4958;48.150;11.506;2022-12-16T01:37:44;94109.81;;;2.63;99.32
9839;BME280;4958;48.150;11.506;2022-12-16T01:43:24;94113.78;;;2.65;99.22
9839;BME280;4958;48.150;11.506;2022-12-16T01:47:17;94109.31;;;2.67;99.34
9839;BME280;4958;48.150;11.506;2022-12-16T01:49:23;94103.28;;;2.68;98.99
9839;BME280;4958;48.150;11.506;2022-12-16T01:52:16;94109.63;;;2.64;99.64
9839;BME280;4958;48.150;11.506;2022-12-16T01:55:17;94107.09;;;2.64;99.73
9839;BME280;4958;48.150;11.506;2022-12-16T01:58:10;94104.56;;;2.56;100.00
9839;BME280;4958;48.150;11.506;2022-12-16T02:00:55;94095.69;;;2.52;100.00
9839;BME280;4958;48.150;11.506;2022-12-16T02:03:46;94100.34;;;2.49;100.00
9839;BME280;4958;48.150;11.506;2022-12-16T02:06:42;94099.66;;;2.55;100.00
9839;BME280;4958;48.150;11.506;2022-12-16T02:09:24;94097.47;;;2.43;100.00
9839;BME280;4958;48.150;11.506;2022-12-16T02:12:25;94101.94;;;2.41;100.00
9839;BME280;4958;48.150;11.506;2022-12-16T02:15:28;94106.19;;;2.49;100.00
9839;BME280;4958;48.150;11.506;2022-12-16T02:21:46;94114.63;;;2.50;100.00
9839;BME280;4958;48.150;11.506;2022-12-16T02:25:19;94108.22;;;2.54;100.00
9839;BME280;4958;48.150;11.506;2022-12-16T02:28:21;94117.13;;;2.58;99.83
9839;BME280;4958;48.150;11.506;2022-12-16T02:31:22;94128.72;;;2.52;100.00
9839;BME280;4958;48.150;11.506;2022-12-16T02:34:29;94122.56;;;2.38;100.00
9839;BME280;4958;48.150;11.506;2022-12-16T02:37:19;94134.63;;;2.36;100.00
9839;BME280;4958;48.150;11.506;2022-12-16T02:40:22;94140.81;;;2.42;100.00
9839;BME280;4958;48.150;11.506;2022-12-16T02:43:06;94137.47;;;2.41;100.00
9839;BME280;4958;48.150;11.506;2022-12-16T02:59:26;94163.66;;;2.42;100.00
9839;BME280;4958;48.150;11.506;2022-12-16T03:02:35;94154.78;;;2.38;100.00
9839;BME280;4958;48.150;11.506;2022-12-16T03:15:19;94173.22;;;1.99;99.86
9839;BME280;4958;48.150;11.506;2022-12-16T03:21:24;94169.56;;;1.94;100.00
9839;BME280;4958;48.150;11.506;2022-12-16T03:27:55;94167.53;;;1.89;98.39
9839;BME280;4958;48.150;11.506;2022-12-16T03:30:40;94162.75;;;1.78;99.21
9839;BME280;4958;48.150;11.506;2022-12-16T03:37:07;94165.94;;;1.72;98.73
9839;BME280;4958;48.150;11.506;2022-12-16T03:39:57;94171.31;;;1.69;99.16
9839;BME280;4958;48.150;11.506;2022-12-16T03:43:59;94174.94;;;1.58;98.53
9839;BME280;4958;48.150;11.506;2022-12-16T04:13:30;94209.88;;;1.14;98.94
9839;BME280;4958;48.150;11.506;2022-12-16T04:21:11;94230.34;;;1.29;99.16
9839;BME280;4958;48.150;11.506;2022-12-16T04:48:12;94263.66;;;1.42;96.22
9839;BME280;4958;48.150;11.506;2022-12-16T04:57:19;94275.06;;;1.38;95.85
9839;BME280;4958;48.150;11.506;2022-12-16T05:00:18;94271.28;;;1.42;96.12
9839;BME280;4958;48.150;11.506;2022-12-16T05:03:32;94285.25;;;1.46;96.73
9839;BME280;4958;48.150;11.506;2022-12-16T05:09:53;94293.59;;;1.38;96.45
9839;BME280;4958;48.150;11.506;2022-12-16T05:13:11;94294.59;;;1.46;95.89
9839;BME280;4958;48.150;11.506;2022-12-16T05:16:21;94294.38;;;1.39;95.53
9839;BME280;4958;48.150;11.506;2022-12-16T05:19:17;94299.31;;;1.41;96.92
9839;BME280;4958;48.150;11.506;2022-12-16T05:22:04;94308.84;;;1.47;96.61
9839;BME280;4958;48.150;11.506;2022-12-16T05:27:49;94310.91;;;1.43;95.31
9839;BME280;4958;48.150;11.506;2022-12-16T05:28:16;94309.44;;;1.41;96.17
9839;BME280;4958;48.150;11.506;2022-12-16T05:31:01;94306.41;;;1.37;97.23
9839;BME280;4958;48.150;11.506;2022-12-16T05:33:44;94312.44;;;1.36;95.49
9839;BME280;4958;48.150;11.506;2022-12-16T05:36:25;94314.50;;;1.32;96.21
9839;BME280;4958;48.150;11.506;2022-12-16T05:39:09;94320.53;;;1.39;95.75
9839;BME280;4958;48.150;11.506;2022-12-16T05:41:53;94317.69;;;1.34;95.28
9839;BME280;4958;48.150;11.506;2022-12-16T05:44:38;94315.78;;;1.36;94.65
9839;BME280;4958;48.150;11.506;2022-12-16T05:47:22;94334.31;;;1.37;95.33
9839;BME280;4958;48.150;11.506;2022-12-16T05:50:07;94332.72;;;1.36;94.91
9839;BME280;4958;48.150;11.506;2022-12-16T05:52:52;94334.78;;;1.32;95.41
9839;BME280;4958;48.150;11.506;2022-12-16T05:55:37;94340.31;;;1.28;94.69
9839;BME280;4958;48.150;11.506;2022-12-16T05:58:22;94353.94;;;1.35;95.71
9839;BME280;4958;48.150;11.506;2022-12-16T06:01:21;94350.97;;;1.39;94.93
9839;BME280;4958;48.150;11.506;2022-12-16T06:04:05;94354.16;;;1.42;97.38
9839;BME280;4958;48.150;11.506;2022-12-16T06:06:49;94361.75;;;1.42;100.00
9839;BME280;4958;48.150;11.506;2022-12-16T06:09:34;94354.19;;;1.50;97.59
9839;BME280;4958;48.150;11.506;2022-12-16T06:12:18;94357.38;;;1.52;95.70
9839;BME280;4958;48.150;11.506;2022-12-16T06:15:02;94366.41;;;1.54;94.88
9839;BME280;4958;48.150;11.506;2022-12-16T06:17:49;94369.22;;;1.43;94.84
9839;BME280;4958;48.150;11.506;2022-12-16T06:20:33;94374.44;;;1.42;94.99
9839;BME280;4958;48.150;11.506;2022-12-16T06:23:17;94376.81;;;1.43;94.63
9839;BME280;4958;48.150;11.506;2022-12-16T06:26:01;94378.25;;;1.46;94.87
9839;BME280;4958;48.150;11.506;2022-12-16T06:28:50;94381.91;;;1.43;93.18
9839;BME280;4958;48.150;11.506;2022-12-16T06:31:35;94383.34;;;1.46;93.62
9839;BME280;4958;48.150;11.506;2022-12-16T06:34:20;94398.84;;;1.43;93.46
9839;BME280;4958;48.150;11.506;2022-12-16T06:37:04;94406.31;;;1.44;94.15
9839;BME280;4958;48.150;11.506;2022-12-16T06:39:48;94412.47;;;1.42;93.75
9839;BME280;4958;48.150;11.506;2022-12-16T06:42:32;94416.31;;;1.46;94.40
9839;BME280;4958;48.150;11.506;2022-12-16T06:45:16;94416.66;;;1.51;93.58
9839;BME280;4958;48.150;11.506;2022-12-16T06:48:00;94415.50;;;1.45;92.13
9839;BME280;4958;48.150;11.506;2022-12-16T06:50:45;94423.69;;;1.39;92.37
9839;BME280;4958;48.150;11.506;2022-12-16T06:53:25;94418.75;;;1.29;93.62
9839;BME280;4958;48.150;11.506;2022-12-16T06:56:09;94428.09;;;1.29;93.67
9839;BME280;4958;48.150;11.506;2022-12-16T06:58:53;94433.25;;;1.19;92.97
9839;BME280;4958;48.150;11.506;2022-12-16T07:01:37;94446.28;;;1.24;94.40
9839;BME280;4958;48.150;11.506;2022-12-16T07:04:21;94444.25;;;1.28;94.10
9839;BME280;4958;48.150;11.506;2022-12-16T07:07:07;94451.19;;;1.26;93.42
9839;BME280;4958;48.150;11.506;2022-12-16T07:09:50;94458.22;;;1.32;93.84
9839;BME280;4958;48.150;11.506;2022-12-16T07:12:34;94464.16;;;1.23;93.30
9839;BME280;4958;48.150;11.506;2022-12-16T07:15:18;94468.94;;;1.26;93.85
9839;BME280;4958;48.150;11.506;2022-12-16T07:18:02;94472.13;;;1.28;93.20
9839;BME280;4958;48.150;11.506;2022-12-16T07:20:49;94476.69;;;1.24;93.27
9839;BME280;4958;48.150;11.506;2022-12-16T07:23:34;94494.94;;;1.28;92.98
9839;BME280;4958;48.150;11.506;2022-12-16T07:26:18;94496.09;;;1.33;92.94
9839;BME280;4958;48.150;11.506;2022-12-16T07:29:08;94495.63;;;1.38;92.52
9839;BME280;4958;48.150;11.506;2022-12-16T07:31:52;94496.44;;;1.38;92.83
9839;BME280;4958;48.150;11.506;2022-12-16T07:34:44;94491.66;;;1.35;92.16
9839;BME280;4958;48.150;11.506;2022-12-16T07:37:28;94503.75;;;1.42;92.79
9839;BME280;4958;48.150;11.506;2022-12-16T07:40:13;94509.91;;;1.39;93.33
9839;BME280;4958;48.150;11.506;2022-12-16T07:42:58;94513.25;;;1.39;92.44
9839;BME280;4958;48.150;11.506;2022-12-16T07:45:41;94521.78;;;1.38;92.40
9839;BME280;4958;48.150;11.506;2022-12-16T07:48:25;94523.09;;;1.43;92.19
9839;BME280;4958;48.150;11.506;2022-12-16T07:51:09;94526.28;;;1.45;91.62
9839;BME280;4958;48.150;11.506;2022-12-16T07:53:53;94526.16;;;1.46;91.39
9839;BME280;4958;48.150;11.506;2022-12-16T07:56:39;94533.91;;;1.45;91.85
9839;BME280;4958;48.150;11.506;2022-12-16T07:59:22;94541.66;;;1.43;91.74
9839;BME280;4958;48.150;11.506;2022-12-16T08:02:08;94538.59;;;1.39;91.89
9839;BME280;4958;48.150;11.506;2022-12-16T08:04:52;94545.69;;;1.36;92.30
9839;BME280;4958;48.150;11.506;2022-12-16T08:07:38;94545.28;;;1.41;92.04
9839;BME280;4958;48.150;11.506;2022-12-16T08:10:22;94549.81;;;1.37;91.34
9839;BME280;4958;48.150;11.506;2022-12-16T08:13:08;94557.00;;;1.42;92.16
9839;BME280;4958;48.150;11.506;2022-12-16T08:15:52;94551.00;;;1.43;91.24
9839;BME280;4958;48.150;11.506;2022-12-16T08:18:35;94561.94;;;1.43;91.03
9839;BME280;4958;48.150;11.506;2022-12-16T08:21:19;94562.72;;;1.44;91.16
9839;BME280;4958;48.150;11.506;2022-12-16T08:24:03;94573.03;;;1.42;91.17
9839;BME280;4958;48.150;11.506;2022-12-16T08:26:48;94579.25;;;1.48;90.63
9839;BME280;4958;48.150;11.506;2022-12-16T08:29:33;94574.69;;;1.51;90.25
9839;BME280;4958;48.150;11.506;2022-12-16T08:32:17;94577.22;;;1.51;89.63
9839;BME280;4958;48.150;11.506;2022-12-16T08:35:01;94582.44;;;1.50;89.94
9839;BME280;4958;48.150;11.506;2022-12-16T08:37:46;94591.41;;;1.44;90.19
9839;BME280;4958;48.150;11.506;2022-12-16T08:40:30;94599.03;;;1.44;91.50
9839;BME280;4958;48.150;11.506;2022-12-16T08:43:14;94599.53;;;1.48;90.97
9839;BME280;4958;48.150;11.506;2022-12-16T08:46:07;94604.03;;;1.54;90.69
9839;BME280;4958;48.150;11.506;2022-12-16T08:48:52;94595.56;;;1.45;90.11
9839;BME280;4958;48.150;11.506;2022-12-16T08:51:36;94603.38;;;1.52;90.25
9839;BME280;4958;48.150;11.506;2022-12-16T08:54:20;94597.56;;;1.59;90.31
9839;BME280;4958;48.150;11.506;2022-12-16T08:57:03;94609.47;;;1.59;88.89
9839;BME280;4958;48.150;11.506;2022-12-16T08:59:47;94616.25;;;1.58;89.51
9839;BME280;4958;48.150;11.506;2022-12-16T09:02:33;94615.31;;;1.59;89.19
9839;BME280;4958;48.150;11.506;2022-12-16T09:05:17;94625.84;;;1.64;88.90
9839;BME280;4958;48.150;11.506;2022-12-16T09:08:02;94625.84;;;1.64;89.17
9839;BME280;4958;48.150;11.506;2022-12-16T09:10:46;94628.88;;;1.68;89.68
9839;BME280;4958;48.150;11.506;2022-12-16T09:13:32;94632.50;;;1.65;89.05
9839;BME280;4958;48.150;11.506;2022-12-16T09:16:17;94631.72;;;1.65;89.03
9839;BME280;4958;48.150;11.506;2022-12-16T09:19:02;94635.34;;;1.62;89.47
9839;BME280;4958;48.150;11.506;2022-12-16T09:21:46;94642.28;;;1.60;89.01
9839;BME280;4958;48.150;11.506;2022-12-16T09:24:30;94645.84;;;1.50;88.45
9839;BME280;4958;48.150;11.506;2022-12-16T09:27:14;94655.63;;;1.45;88.32
9839;BME280;4958;48.150;11.506;2022-12-16T09:29:58;94660.94;;;1.51;88.81
9839;BME280;4958;48.150;11.506;2022-12-16T09:32:42;94658.06;;;1.54;89.33
9839;BME280;4958;48.150;11.506;2022-12-16T09:35:28;94663.75;;;1.48;88.77
9839;BME280;4958;48.150;11.506;2022-12-16T09:38:12;94664.41;;;1.50;88.75
9839;BME280;4958;48.150;11.506;2022-12-16T09:40:57;94675.06;;;1.54;88.27
9839;BME280;4958;48.150;11.506;2022-12-16T09:43:54;94678.03;;;1.49;88.42
9839;BME280;4958;48.150;11.506;2022-12-16T09:46:50;94684.69;;;1.50;87.74
9839;BME280;4958;48.150;11.506;2022-12-16T09:49:43;94680.28;;;1.52;88.37
9839;BME280;4958;48.150;11.506;2022-12-16T09:52:33;94696.44;;;1.51;91.70
9839;BME280;4958;48.150;11.506;2022-12-16T09:55:24;94689.16;;;1.56;91.78
9839;BME280;4958;48.150;11.506;2022-12-16T09:58:09;94689.63;;;1.69;89.39
9839;BME280;4958;48.150;11.506;2022-12-16T10:00:51;94693.78;;;1.70;89.16
9839;BME280;4958;48.150;11.506;2022-12-16T10:03:37;94700.06;;;1.66;88.88
9839;BME280;4958;48.150;11.506;2022-12-16T10:06:36;94703.41;;;1.67;89.77
9839;BME280;4958;48.150;11.506;2022-12-16T10:09:27;94703.91;;;1.70;88.55
9839;BME280;4958;48.150;11.506;2022-12-16T10:12:19;94710.34;;;1.65;88.30
9839;BME280;4958;48.150;11.506;2022-12-16T10:15:18;94704.19;;;1.67;88.33
9839;BME280;4958;48.150;11.506;2022-12-16T10:18:15;94710.88;;;1.68;87.98
9839;BME280;4958;48.150;11.506;2022-12-16T10:21:07;94710.22;;;1.66;87.21
9839;BME280;4958;48.150;11.506;2022-12-16T10:23:59;94708.19;;;1.70;87.91
9839;BME280;4958;48.150;11.506;2022-12-16T10:26:52;94708.69;;;1.73;87.75
9839;BME280;4958;48.150;11.506;2022-12-16T10:29:41;94712.31;;;1.71;87.52
9839;BME280;4958;48.150;11.506;2022-12-16T10:32:28;94715.22;;;1.76;87.38
9839;BME280;4958;48.150;11.506;2022-12-16T10:35:19;94727.91;;;1.76;87.44
9839;BME280;4958;48.150;11.506;2022-12-16T10:38:05;94726.44;;;1.73;86.24
9839;BME280;4958;48.150;11.506;2022-12-16T10:40:54;94718.63;;;1.67;85.43
9839;BME280;4958;48.150;11.506;2022-12-16T10:43:44;94725.19;;;1.60;85.22
9839;BME280;4958;48.150;11.506;2022-12-16T10:46:32;94725.56;;;1.47;86.50
9839;BME280;4958;48.150;11.506;2022-12-16T10:49:19;94733.97;;;1.48;86.35
9839;BME280;4958;48.150;11.506;2022-12-16T10:52:04;94722.88;;;1.49;86.56
9839;BME280;4958;48.150;11.506;2022-12-16T10:54:56;94726.41;;;1.56;86.18
9839;BME280;4958;48.150;11.506;2022-12-16T10:57:55;94738.09;;;1.49;86.17
9839;BME280;4958;48.150;11.506;2022-12-16T11:00:46;94738.22;;;1.47;86.04
9839;BME280;4958;48.150;11.506;2022-12-16T11:03:32;94742.09;;;1.51;86.48
9839;BME280;4958;48.150;11.506;2022-12-16T11:06:21;94740.56;;;1.58;86.60
9839;BME280;4958;48.150;11.506;2022-12-16T11:09:24;94738.41;;;1.63;84.88
9839;BME280;4958;48.150;11.506;2022-12-16T11:12:16;94746.56;;;1.57;85.52
9839;BME280;4958;48.150;11.506;2022-12-16T11:15:22;94745.56;;;1.50;84.69
9839;BME280;4958;48.150;11.506;2022-12-16T11:18:11;94752.81;;;1.35;84.99
9839;BME280;4958;48.150;11.506;2022-12-16T11:21:19;94748.41;;;1.37;85.21
9839;BME280;4958;48.150;11.506;2022-12-16T11:24:06;94746.94;;;1.35;85.60
9839;BME280;4958;48.150;11.506;2022-12-16T11:26:54;94755.09;;;1.38;85.92
9839;BME280;4958;48.150;11.506;2022-12-16T11:29:53;94764.00;;;1.43;86.02
9839;BME280;4958;48.150;11.506;2022-12-16T11:32:39;94767.63;;;1.40;85.95
9839;BME280;4958;48.150;11.506;2022-12-16T11:35:30;94762.03;;;1.36;86.04
9839;BME280;4958;48.150;11.506;2022-12-16T11:38:27;94759.34;;;1.38;85.91
9839;BME280;4958;48.150;11.506;2022-12-16T11:41:21;94760.16;;;1.38;86.18
9839;BME280;4958;48.150;11.506;2022-12-16T11:44:10;94750.38;;;1.44;86.82
9839;BME280;4958;48.150;11.506;2022-12-16T11:46:58;94749.97;;;1.48;86.29
9839;BME280;4958;48.150;11.506;2022-12-16T11:49:42;94751.78;;;1.56;85.63
9839;BME280;4958;48.150;11.506;2022-12-16T11:52:27;94758.59;;;1.55;86.67
9839;BME280;4958;48.150;11.506;2022-12-16T11:55:16;94757.59;;;1.48;86.21
9839;BME280;4958;48.150;11.506;2022-12-16T11:58:04;94760.44;;;1.35;86.45
9839;BME280;4958;48.150;11.506;2022-12-16T12:01:02;94764.94;;;1.42;85.89
9839;BME280;4958;48.150;11.506;2022-12-16T12:03:49;94774.53;;;1.48;85.24
9839;BME280;4958;48.150;11.506;2022-12-16T12:06:45;94774.28;;;1.41;85.63
9839;BME280;4958;48.150;11.506;2022-12-16T12:09:40;94779.16;;;1.34;85.40
9839;BME280;4958;48.150;11.506;2022-12-16T12:12:34;94771.88;;;1.39;85.50
9839;BME280;4958;48.150;11.506;2022-12-16T12:15:24;94779.16;;;1.34;86.17
9839;BME280;4958;48.150;11.506;2022-12-16T12:18:16;94783.91;;;1.37;85.69
9839;BME280;4958;48.150;11.506;2022-12-16T12:21:10;94784.81;;;1.46;85.42
9839;BME280;4958;48.150;11.506;2022-12-16T12:24:04;94782.66;;;1.51;85.22
9839;BME280;4958;48.150;11.506;2022-12-16T12:26:58;94789.19;;;1.54;85.08
9839;BME280;4958;48.150;11.506;2022-12-16T12:29:53;94784.75;;;1.56;85.40
9839;BME280;4958;48.150;11.506;2022-12-16T12:32:48;94781.88;;;1.51;85.08
9839;BME280;4958;48.150;11.506;2022-12-16T12:35:45;94791.91;;;1.43;85.89
9839;BME280;4958;48.150;11.506;2022-12-16T12:38:39;94792.56;;;1.45;85.17
9839;BME280;4958;48.150;11.506;2022-12-16T12:41:33;94802.25;;;1.59;84.62
9839;BME280;4958;48.150;11.506;2022-12-16T12:44:21;94803.56;;;1.63;84.54
9839;BME280;4958;48.150;11.506;2022-12-16T12:47:11;94803.81;;;1.69;85.07
9839;BME280;4958;48.150;11.506;2022-12-16T12:49:59;94802.22;;;1.68;84.97
9839;BME280;4958;48.150;11.506;2022-12-16T12:53:13;94806.66;;;1.57;83.09
9839;BME280;4958;48.150;11.506;2022-12-16T12:56:04;94807.25;;;1.41;84.39
9839;BME280;4958;48.150;11.506;2022-12-16T12:58:54;94813.53;;;1.37;85.77
9839;BME280;4958;48.150;11.506;2022-12-16T13:01:43;94818.34;;;1.40;85.35
9839;BME280;4958;48.150;11.506;2022-12-16T13:04:29;94812.47;;;1.39;84.95
9839;BME280;4958;48.150;11.506;2022-12-16T13:07:17;94821.13;;;1.47;85.01
9839;BME280;4958;48.150;11.506;2022-12-16T13:10:11;94824.47;;;1.37;83.97
9839;BME280;4958;48.150;11.506;2022-12-16T13:17:06;94831.06;;;1.30;84.36
9839;BME280;4958;48.150;11.506;2022-12-16T13:19:57;94833.34;;;1.33;84.21
9839;BME280;4958;48.150;11.506;2022-12-16T13:22:43;94840.50;;;1.38;84.54
9839;BME280;4958;48.150;11.506;2022-12-16T13:25:37;94843.31;;;1.35;84.54
9839;BME280;4958;48.150;11.506;2022-12-16T13:28:25;94850.56;;;1.30;84.29
9839;BME280;4958;48.150;11.506;2022-12-16T13:31:10;94846.28;;;1.21;84.30
9839;BME280;4958;48.150;11.506;2022-12-16T13:34:02;94851.34;;;1.21;84.33
9839;BME280;4958;48.150;11.506;2022-12-16T13:36:52;94852.72;;;1.15;83.65
9839;BME280;4958;48.150;11.506;2022-12-16T13:39:39;94864.59;;;1.15;83.71
9839;BME280;4958;48.150;11.506;2022-12-16T13:42:51;94868.06;;;1.14;84.18
9839;BME280;4958;48.150;11.506;2022-12-16T13:45:38;94879.25;;;1.21;83.92
9839;BME280;4958;48.150;11.506;2022-12-16T13:48:35;94875.69;;;1.14;84.26
9839;BME280;4958;48.150;11.506;2022-12-16T13:54:52;94885.81;;;1.14;84.99
9839;BME280;4958;48.150;11.506;2022-12-16T13:57:54;94894.06;;;1.16;84.00
9839;BME280;4958;48.150;11.506;2022-12-16T14:00:54;94896.75;;;1.14;83.89
9839;BME280;4958;48.150;11.506;2022-12-16T14:03:43;94898.22;;;1.07;84.34
9839;BME280;4958;48.150;11.506;2022-12-16T14:06:29;94899.28;;;1.04;84.80
9839;BME280;4958;48.150;11.506;2022-12-16T14:09:23;94901.97;;;1.03;85.77
9839;BME280;4958;48.150;11.506;2022-12-16T14:12:19;94917.03;;;1.04;86.13
9839;BME280;4958;48.150;11.506;2022-12-16T14:15:10;94907.84;;;1.13;85.78
9839;BME280;4958;48.150;11.506;2022-12-16T14:18:02;94913.69;;;1.14;85.58
9839;BME280;4958;48.150;11.506;2022-12-16T14:21:00;94921.03;;;0.97;86.73
9839;BME280;4958;48.150;11.506;2022-12-16T14:23:48;94931.47;;;0.94;86.95
9839;BME280;4958;48.150;11.506;2022-12-16T14:26:34;94936.63;;;1.02;86.62
9839;BME280;4958;48.150;11.506;2022-12-16T14:29:23;94948.25;;;1.05;86.49
9839;BME280;4958;48.150;11.506;2022-12-16T14:32:26;94951.59;;;1.06;87.01
9839;BME280;4958;48.150;11.506;2022-12-16T14:35:15;94950.66;;;1.07;87.13
9839;BME280;4958;48.150;11.506;2022-12-16T14:38:14;94963.28;;;1.45;100.00
9839;BME280;4958;48.150;11.506;2022-12-16T14:41:03;94969.22;;;2.47;100.00
9839;BME280;4958;48.150;11.506;2022-12-16T14:43:47;94966.97;;;2.62;100.00
9839;BME280;4958;48.150;11.506;2022-12-16T14:46:33;94975.75;;;2.50;87.08
9839;BME280;4958;48.150;11.506;2022-12-16T14:49:20;94975.75;;;2.22;84.68
9839;BME280;4958;48.150;11.506;2022-12-16T14:52:15;94985.59;;;1.98;84.66
9839;BME280;4958;48.150;11.506;2022-12-16T14:55:03;94983.38;;;1.85;85.67
9839;BME280;4958;48.150;11.506;2022-12-16T14:58:01;94984.47;;;1.63;85.59
9839;BME280;4958;48.150;11.506;2022-12-16T15:00:45;94991.31;;;1.53;86.10
9839;BME280;4958;48.150;11.506;2022-12-16T15:03:33;94996.38;;;1.44;85.75
9839;BME280;4958;48.150;11.506;2022-12-16T15:06:24;94991.59;;;1.31;86.49
9839;BME280;4958;48.150;11.506;2022-12-16T15:09:18;94994.25;;;1.20;87.40
9839;BME280;4958;48.150;11.506;2022-12-16T15:12:05;94996.94;;;1.09;86.44
9839;BME280;4958;48.150;11.506;2022-12-16T15:14:52;95004.81;;;1.06;86.74
9839;BME280;4958;48.150;11.506;2022-12-16T15:17:43;95004.69;;;1.07;86.56
9839;BME280;4958;48.150;11.506;2022-12-16T15:20:33;95015.22;;;0.93;85.48
9839;BME280;4958;48.150;11.506;2022-12-16T15:23:21;95017.03;;;0.81;86.87
9839;BME280;4958;48.150;11.506;2022-12-16T15:26:06;95015.84;;;0.76;86.87
9839;BME280;4958;48.150;11.506;2022-12-16T15:28:51;95020.63;;;0.79;87.01
9839;BME280;4958;48.150;11.506;2022-12-16T15:31:37;95025.06;;;0.77;87.00
9839;BME280;4958;48.150;11.506;2022-12-16T15:34:28;95037.84;;;0.75;86.35
9839;BME280;4958;48.150;11.506;2022-12-16T15:37:20;95042.50;;;0.80;86.51
9839;BME280;4958;48.150;11.506;2022-12-16T15:40:18;95045.53;;;0.64;86.51
9839;BME280;4958;48.150;11.506;2022-12-16T15:43:02;95048.19;;;0.62;86.75
9839;BME280;4958;48.150;11.506;2022-12-16T15:45:48;95057.66;;;0.60;86.96
9839;BME280;4958;48.150;11.506;2022-12-16T15:48:34;95065.00;;;0.63;87.33
9839;BME280;4958;48.150;11.506;2022-12-16T15:51:22;95056.09;;;0.69;86.62
9839;BME280;4958;48.150;11.506;2022-12-16T15:54:14;95065.59;;;0.77;86.97
9839;BME280;4958;48.150;11.506;2022-12-16T15:56:59;95066.00;;;0.82;87.19
9839;BME280;4958;48.150;11.506;2022-12-16T15:59:54;95074.38;;;0.82;86.92
9839;BME280;4958;48.150;11.506;2022-12-16T16:02:45;95069.06;;;0.76;87.41
9839;BME280;4958;48.150;11.506;2022-12-16T16:05:30;95076.13;;;0.82;87.32
9839;BME280;4958;48.150;11.506;2022-12-16T16:08:14;95082.66;;;0.84;86.77
9839;BME280;4958;48.150;11.506;2022-12-16T16:10:59;95079.47;;;0.82;86.27
9839;BME280;4958;48.150;11.506;2022-12-16T16:13:43;95089.31;;;0.76;86.61
9839;BME280;4958;48.150;11.506;2022-12-16T16:16:27;95096.38;;;0.82;86.81
9839;BME280;4958;48.150;11.506;2022-12-16T16:19:17;95095.59;;;0.81;86.90
9839;BME280;4958;48.150;11.506;2022-12-16T16:22:02;95090.66;;;0.80;86.43
9839;BME280;4958;48.150;11.506;2022-12-16T16:34:43;95107.06;;;0.85;86.46
9839;BME280;4958;48.150;11.506;2022-12-16T16:41:18;95115.34;;;0.87;86.47
9839;BME280;4958;48.150;11.506;2022-12-16T16:54:55;95130.38;;;0.79;87.46
9839;BME280;4958;48.150;11.506;2022-12-16T16:57:44;95142.81;;;0.82;87.50
9839;BME280;4958;48.150;11.506;2022-12-16T17:00:43;95142.78;;;0.73;87.44
9839;BME280;4958;48.150;11.506;2022-12-16T17:03:56;95138.91;;;0.78;87.40
9839;BME280;4958;48.150;11.506;2022-12-16T17:06:56;95156.25;;;0.73;87.50
9839;BME280;4958;48.150;11.506;2022-12-16T17:09:41;95153.84;;;0.72;87.75
9839;BME280;4958;48.150;11.506;2022-12-16T17:20:15;95165.34;;;0.76;87.78
9839;BME280;4958;48.150;11.506;2022-12-16T17:27:27;95166.63;;;0.70;88.44
9839;BME280;4958;48.150;11.506;2022-12-16T17:30:15;95189.44;;;0.70;88.60
9839;BME280;4958;48.150;11.506;2022-12-16T17:33:20;95183.56;;;0.69;88.73
9839;BME280;4958;48.150;11.506;2022-12-16T17:53:08;95221.38;;;0.61;89.36
9839;BME280;4958;48.150;11.506;2022-12-16T17:55:55;95219.47;;;0.54;89.62
9839;BME280;4958;48.150;11.506;2022-12-16T18:03:21;95222.84;;;0.64;89.54
9839;BME280;4958;48.150;11.506;2022-12-16T18:15:51;95243.44;;;0.71;90.56
9839;BME280;4958;48.150;11.506;2022-12-16T19:55:28;95349.63;;;0.62;89.47
9839;BME280;4958;48.150;11.506;2022-12-16T19:58:58;95358.16;;;0.61;89.84
9839;BME280;4958;48.150;11.506;2022-12-16T20:09:05;95372.25;;;0.54;89.31
9839;BME280;4958;48.150;11.506;2022-12-16T20:19:13;95392.38;;;0.56;88.30
9839;BME280;4958;48.150;11.506;2022-12-16T20:22:00;95401.34;;;0.60;88.43
9839;BME280;4958;48.150;11.506;2022-12-16T20:24:47;95406.41;;;0.60;88.50
9839;BME280;4958;48.150;11.506;2022-12-16T20:38:01;95424.59;;;0.65;87.32
9839;BME280;4958;48.150;11.506;2022-12-16T20:41:11;95438.06;;;0.65;88.97
9839;BME280;4958;48.150;11.506;2022-12-16T20:47:26;95435.06;;;0.60;87.28
9839;BME280;4958;48.150;11.506;2022-12-16T20:50:18;95447.50;;;0.63;86.51
9839;BME280;4958;48.150;11.506;2022-12-16T21:00:08;95450.59;;;0.67;86.95
9839;BME280;4958;48.150;11.506;2022-12-16T21:02:56;95452.72;;;0.51;86.84
9839;BME280;4958;48.150;11.506;2022-12-16T21:08:48;95463.53;;;0.53;87.65
9839;BME280;4958;48.150;11.506;2022-12-16T21:11:39;95466.66;;;0.56;87.99